此METAR来自2022年8月5日 19:00. 最近的
罗盘
风向 的 风向 的 风向 到 风向 340° Rouen Airport 4/22
风: 13 kt, 4 beaufort

6 kt

11 kt
改变
0 1.000 2.000 3.000 4.000 5.000
没有观察到明显的云
METAR LFOP 051700Z AUTO 34013KT 310V010 9000 NSC 21/05 Q1023 NOSIG

METAR Rouen Airport - LFOP/URO

Rouen Airport是Rouen/Vallée de Seine,法国中的中型机场。 该机场有2条跑道: 4/22 和 5/23. 该领域的国际民航组织标志是LFOP 它的国际航空运输协会代码是URO.

这份报告是针对2022年8月5日 19:00, 当地时间在Rouen Airport进行的。

机场观察

风向为340°,速度为13 kt。 风向在310°和010°之间变化。

可见度为9 km。

有没有观察到明显的云。 没有观察到天花板。

温度和风寒是21 °C。 露点为5 °C,相对湿度为35%。 海平面上的气压为1023 hPa (QNH)。

白天

今天,太阳从07:46升起,在19:47降落。 这适用于Rouen Airport,世界夏令时可能有所不同。 当地时间与世界标准时间之间的时差为+2 小时。 夏令时目前正在进行中。

公司介绍

在这个机场,你可以找到飞行俱乐部。 本场上唯一已知的公司是Aéro-Club de Rouen Normandie。

体会

到Vliegles.nl去找飞行课程,跳伞和其他飞行体验。 浏览页面,了解Rouen Airport附近所有可用的活动。 你也可以使用搜索功能来寻找你所在地附近的特定飞行课程、跳伞或其他飞行体验。

跑道

Id 标题 侧风 逆风 侧风 %
4/22 041°-221° 11 kt 6 kt 87 %
5/23 050°-230° 12 kt 4 kt 94 %

逆风成分最大的方向会被突出显示,并用于横风计算。 这并不一定意味着这个方向在使用。

乌云

- NSC 没有观察到明显的云

温度 & 天气

温度 21 °C
露点 5 °C
相对湿度 35%
Kp-index 0  

白天

日出
06:32
中午
14:01
日落
21:30

小工具

你想在你的网站上有一个关于Rouen Airport的当前航空天气(METAR)的小部件吗?

</> 显示HTML代码

我们和第三方通过cookies跟踪您在我们网站上的上网行为。如果您继续,我们认为您同意我们的cookie政策。 了解更多